sensor_id;sensor_type;location;lat;lon;timestamp;P1;durP1;ratioP1;P2;durP2;ratioP2
16033;SDS011;8121;51.418;6.998;2022-07-23T00:00:02;2.03;;;1.90;;
16033;SDS011;8121;51.418;6.998;2022-07-23T00:10:06;2.60;;;2.40;;
16033;SDS011;8121;51.418;6.998;2022-07-23T00:20:10;4.23;;;3.83;;
16033;SDS011;8121;51.418;6.998;2022-07-23T00:30:12;6.30;;;3.40;;
16033;SDS011;8121;51.418;6.998;2022-07-23T00:40:15;5.00;;;4.37;;
16033;SDS011;8121;51.418;6.998;2022-07-23T00:50:17;2.80;;;2.60;;
16033;SDS011;8121;51.418;6.998;2022-07-23T01:00:20;5.80;;;5.00;;
16033;SDS011;8121;51.418;6.998;2022-07-23T01:10:23;3.37;;;3.07;;
16033;SDS011;8121;51.418;6.998;2022-07-23T01:20:35;6.60;;;4.87;;
16033;SDS011;8121;51.418;6.998;2022-07-23T01:30:38;3.37;;;3.07;;
16033;SDS011;8121;51.418;6.998;2022-07-23T01:40:40;4.50;;;3.73;;
16033;SDS011;8121;51.418;6.998;2022-07-23T01:50:42;3.50;;;3.20;;
16033;SDS011;8121;51.418;6.998;2022-07-23T02:00:44;3.60;;;3.10;;
16033;SDS011;8121;51.418;6.998;2022-07-23T02:10:47;3.67;;;3.37;;
16033;SDS011;8121;51.418;6.998;2022-07-23T02:20:48;4.53;;;3.07;;
16033;SDS011;8121;51.418;6.998;2022-07-23T02:30:51;3.63;;;3.07;;
16033;SDS011;8121;51.418;6.998;2022-07-23T02:40:52;6.60;;;4.40;;
16033;SDS011;8121;51.418;6.998;2022-07-23T02:50:55;4.97;;;3.97;;
16033;SDS011;8121;51.418;6.998;2022-07-23T03:00:57;9.43;;;6.10;;
16033;SDS011;8121;51.418;6.998;2022-07-23T03:10:59;5.43;;;3.80;;
16033;SDS011;8121;51.418;6.998;2022-07-23T03:21:01;12.17;;;7.73;;
16033;SDS011;8121;51.418;6.998;2022-07-23T03:31:04;3.43;;;3.13;;
16033;SDS011;8121;51.418;6.998;2022-07-23T03:41:05;5.90;;;3.53;;
16033;SDS011;8121;51.418;6.998;2022-07-23T03:51:08;4.63;;;4.00;;
16033;SDS011;8121;51.418;6.998;2022-07-23T04:01:10;3.07;;;2.77;;
16033;SDS011;8121;51.418;6.998;2022-07-23T04:11:13;3.27;;;3.07;;
16033;SDS011;8121;51.418;6.998;2022-07-23T04:21:14;3.87;;;2.87;;
16033;SDS011;8121;51.418;6.998;2022-07-23T04:31:17;4.00;;;3.70;;
16033;SDS011;8121;51.418;6.998;2022-07-23T04:41:19;4.53;;;4.13;;
16033;SDS011;8121;51.418;6.998;2022-07-23T04:51:21;3.50;;;3.20;;
16033;SDS011;8121;51.418;6.998;2022-07-23T05:01:23;5.70;;;3.90;;
16033;SDS011;8121;51.418;6.998;2022-07-23T05:11:26;12.47;;;5.93;;
16033;SDS011;8121;51.418;6.998;2022-07-23T05:21:27;3.57;;;3.20;;
16033;SDS011;8121;51.418;6.998;2022-07-23T05:31:30;6.83;;;5.10;;
16033;SDS011;8121;51.418;6.998;2022-07-23T05:41:31;12.00;;;4.90;;
16033;SDS011;8121;51.418;6.998;2022-07-23T05:51:34;4.70;;;3.60;;
16033;SDS011;8121;51.418;6.998;2022-07-23T06:01:36;5.07;;;3.00;;
16033;SDS011;8121;51.418;6.998;2022-07-23T06:11:39;9.03;;;5.23;;
16033;SDS011;8121;51.418;6.998;2022-07-23T06:21:40;4.20;;;3.80;;
16033;SDS011;8121;51.418;6.998;2022-07-23T06:31:43;4.60;;;4.20;;
16033;SDS011;8121;51.418;6.998;2022-07-23T06:41:45;4.17;;;3.80;;
16033;SDS011;8121;51.418;6.998;2022-07-23T06:51:47;10.67;;;6.03;;
16033;SDS011;8121;51.418;6.998;2022-07-23T07:01:49;5.37;;;4.20;;
16033;SDS011;8121;51.418;6.998;2022-07-23T07:11:52;8.50;;;5.80;;
16033;SDS011;8121;51.418;6.998;2022-07-23T07:21:53;5.90;;;4.10;;
16033;SDS011;8121;51.418;6.998;2022-07-23T07:31:56;7.43;;;4.40;;
16033;SDS011;8121;51.418;6.998;2022-07-23T07:41:58;6.43;;;4.90;;
16033;SDS011;8121;51.418;6.998;2022-07-23T07:52:01;7.83;;;6.50;;
16033;SDS011;8121;51.418;6.998;2022-07-23T08:02:06;8.63;;;5.77;;
16033;SDS011;8121;51.418;6.998;2022-07-23T08:12:12;5.57;;;4.03;;
16033;SDS011;8121;51.418;6.998;2022-07-23T08:22:14;6.13;;;4.73;;
16033;SDS011;8121;51.418;6.998;2022-07-23T08:32:17;3.60;;;3.30;;
16033;SDS011;8121;51.418;6.998;2022-07-23T08:42:19;3.17;;;2.83;;
16033;SDS011;8121;51.418;6.998;2022-07-23T08:52:26;6.07;;;4.70;;
16033;SDS011;8121;51.418;6.998;2022-07-23T09:02:28;4.13;;;2.43;;
16033;SDS011;8121;51.418;6.998;2022-07-23T09:12:31;2.90;;;1.87;;
16033;SDS011;8121;51.418;6.998;2022-07-23T09:22:33;3.80;;;2.13;;
16033;SDS011;8121;51.418;6.998;2022-07-23T09:32:35;2.60;;;1.30;;
16033;SDS011;8121;51.418;6.998;2022-07-23T09:42:37;2.20;;;1.40;;
16033;SDS011;8121;51.418;6.998;2022-07-23T09:52:43;3.00;;;1.57;;
16033;SDS011;8121;51.418;6.998;2022-07-23T10:02:47;3.50;;;2.20;;
16033;SDS011;8121;51.418;6.998;2022-07-23T10:12:50;1.30;;;1.20;;
16033;SDS011;8121;51.418;6.998;2022-07-23T10:23:10;3.60;;;2.67;;
16033;SDS011;8121;51.418;6.998;2022-07-23T10:33:20;1.73;;;1.30;;
16033;SDS011;8121;51.418;6.998;2022-07-23T10:43:28;6.00;;;1.77;;
16033;SDS011;8121;51.418;6.998;2022-07-23T10:53:33;3.53;;;2.20;;
16033;SDS011;8121;51.418;6.998;2022-07-23T11:03:55;1.50;;;1.40;;
16033;SDS011;8121;51.418;6.998;2022-07-23T11:14:00;2.40;;;1.33;;
16033;SDS011;8121;51.418;6.998;2022-07-23T11:24:03;1.60;;;1.50;;
16033;SDS011;8121;51.418;6.998;2022-07-23T11:34:29;2.80;;;1.57;;
16033;SDS011;8121;51.418;6.998;2022-07-23T11:44:33;2.57;;;2.37;;
16033;SDS011;8121;51.418;6.998;2022-07-23T11:54:40;1.90;;;1.80;;
16033;SDS011;8121;51.418;6.998;2022-07-23T12:04:48;2.90;;;1.70;;
16033;SDS011;8121;51.418;6.998;2022-07-23T12:14:53;1.93;;;1.30;;
16033;SDS011;8121;51.418;6.998;2022-07-23T12:24:56;3.43;;;1.93;;
16033;SDS011;8121;51.418;6.998;2022-07-23T12:35:05;1.00;;;0.90;;
16033;SDS011;8121;51.418;6.998;2022-07-23T12:45:08;2.67;;;1.47;;
16033;SDS011;8121;51.418;6.998;2022-07-23T13:05:30;2.70;;;1.10;;
16033;SDS011;8121;51.418;6.998;2022-07-23T13:15:33;5.57;;;1.93;;
16033;SDS011;8121;51.418;6.998;2022-07-23T13:25:35;1.40;;;1.30;;
16033;SDS011;8121;51.418;6.998;2022-07-23T13:35:37;1.60;;;1.50;;
16033;SDS011;8121;51.418;6.998;2022-07-23T13:45:39;2.10;;;1.90;;
16033;SDS011;8121;51.418;6.998;2022-07-23T13:55:43;6.50;;;3.70;;
16033;SDS011;8121;51.418;6.998;2022-07-23T14:05:46;1.50;;;1.40;;
16033;SDS011;8121;51.418;6.998;2022-07-23T14:15:49;1.40;;;1.30;;
16033;SDS011;8121;51.418;6.998;2022-07-23T14:25:50;4.30;;;1.47;;
16033;SDS011;8121;51.418;6.998;2022-07-23T14:35:53;1.47;;;1.37;;
16033;SDS011;8121;51.418;6.998;2022-07-23T14:45:54;4.43;;;2.73;;
16033;SDS011;8121;51.418;6.998;2022-07-23T14:55:57;3.60;;;1.80;;
16033;SDS011;8121;51.418;6.998;2022-07-23T15:05:59;1.93;;;1.73;;
16033;SDS011;8121;51.418;6.998;2022-07-23T15:16:02;1.57;;;1.43;;
16033;SDS011;8121;51.418;6.998;2022-07-23T15:26:04;2.10;;;2.00;;
16033;SDS011;8121;51.418;6.998;2022-07-23T15:36:07;1.27;;;1.17;;
16033;SDS011;8121;51.418;6.998;2022-07-23T15:46:09;1.37;;;1.27;;
16033;SDS011;8121;51.418;6.998;2022-07-23T15:56:12;2.47;;;2.27;;
16033;SDS011;8121;51.418;6.998;2022-07-23T16:06:14;4.20;;;3.10;;
16033;SDS011;8121;51.418;6.998;2022-07-23T16:16:17;3.27;;;2.97;;
16033;SDS011;8121;51.418;6.998;2022-07-23T16:26:19;2.50;;;2.30;;
16033;SDS011;8121;51.418;6.998;2022-07-23T16:36:22;3.00;;;2.07;;
16033;SDS011;8121;51.418;6.998;2022-07-23T16:46:24;2.53;;;2.33;;
16033;SDS011;8121;51.418;6.998;2022-07-23T16:56:27;2.10;;;1.90;;
16033;SDS011;8121;51.418;6.998;2022-07-23T17:06:28;1.70;;;1.60;;
16033;SDS011;8121;51.418;6.998;2022-07-23T17:16:31;1.60;;;1.50;;
16033;SDS011;8121;51.418;6.998;2022-07-23T17:26:33;1.97;;;1.77;;
16033;SDS011;8121;51.418;6.998;2022-07-23T17:36:36;2.73;;;2.53;;
16033;SDS011;8121;51.418;6.998;2022-07-23T17:46:37;2.40;;;2.00;;
16033;SDS011;8121;51.418;6.998;2022-07-23T17:56:40;3.83;;;1.40;;
16033;SDS011;8121;51.418;6.998;2022-07-23T18:06:42;1.70;;;1.60;;
16033;SDS011;8121;51.418;6.998;2022-07-23T18:16:45;1.67;;;1.57;;
16033;SDS011;8121;51.418;6.998;2022-07-23T18:26:46;2.00;;;1.80;;
16033;SDS011;8121;51.418;6.998;2022-07-23T18:36:49;4.40;;;1.40;;
16033;SDS011;8121;51.418;6.998;2022-07-23T18:46:51;1.90;;;1.20;;
16033;SDS011;8121;51.418;6.998;2022-07-23T18:56:53;5.23;;;1.40;;
16033;SDS011;8121;51.418;6.998;2022-07-23T19:06:55;1.90;;;1.80;;
16033;SDS011;8121;51.418;6.998;2022-07-23T19:16:58;1.30;;;1.20;;
16033;SDS011;8121;51.418;6.998;2022-07-23T19:26:59;1.77;;;1.67;;
16033;SDS011;8121;51.418;6.998;2022-07-23T19:37:02;2.20;;;1.97;;
16033;SDS011;8121;51.418;6.998;2022-07-23T19:47:07;11.43;;;2.40;;
16033;SDS011;8121;51.418;6.998;2022-07-23T19:57:10;2.30;;;2.10;;
16033;SDS011;8121;51.418;6.998;2022-07-23T20:07:12;1.97;;;1.70;;
16033;SDS011;8121;51.418;6.998;2022-07-23T20:17:14;5.03;;;2.93;;
16033;SDS011;8121;51.418;6.998;2022-07-23T20:27:16;3.00;;;2.47;;
16033;SDS011;8121;51.418;6.998;2022-07-23T20:37:19;4.40;;;3.00;;
16033;SDS011;8121;51.418;6.998;2022-07-23T20:47:21;6.40;;;3.97;;
16033;SDS011;8121;51.418;6.998;2022-07-23T20:57:23;4.27;;;3.37;;
16033;SDS011;8121;51.418;6.998;2022-07-23T21:07:25;2.73;;;2.50;;
16033;SDS011;8121;51.418;6.998;2022-07-23T21:17:28;4.00;;;2.60;;
16033;SDS011;8121;51.418;6.998;2022-07-23T21:27:29;5.47;;;3.40;;
16033;SDS011;8121;51.418;6.998;2022-07-23T21:37:33;8.93;;;3.97;;
16033;SDS011;8121;51.418;6.998;2022-07-23T21:47:34;12.43;;;4.43;;
16033;SDS011;8121;51.418;6.998;2022-07-23T21:57:38;3.07;;;2.80;;
16033;SDS011;8121;51.418;6.998;2022-07-23T22:07:39;4.67;;;3.27;;
16033;SDS011;8121;51.418;6.998;2022-07-23T22:17:42;4.95;;;4.00;;
16033;SDS011;8121;51.418;6.998;2022-07-23T22:27:45;3.50;;;3.30;;
16033;SDS011;8121;51.418;6.998;2022-07-23T22:37:49;5.03;;;2.87;;
16033;SDS011;8121;51.418;6.998;2022-07-23T22:47:51;3.67;;;3.37;;
16033;SDS011;8121;51.418;6.998;2022-07-23T22:57:54;4.10;;;3.60;;
16033;SDS011;8121;51.418;6.998;2022-07-23T23:07:55;3.80;;;3.50;;
16033;SDS011;8121;51.418;6.998;2022-07-23T23:17:58;5.47;;;3.73;;
16033;SDS011;8121;51.418;6.998;2022-07-23T23:28:00;4.67;;;3.10;;
16033;SDS011;8121;51.418;6.998;2022-07-23T23:38:03;6.73;;;3.90;;
16033;SDS011;8121;51.418;6.998;2022-07-23T23:48:05;3.90;;;3.33;;
16033;SDS011;8121;51.418;6.998;2022-07-23T23:58:08;18.40;;;5.40;;
